Woodhaven, New York
Current Conditions -  °F | °C
As of 4:51 AM on Saturday 25 Oct 2014 (Local Time) from KJFK Reporting Station
Scattered Clouds Scattered Clouds  
Wind Chill: 11°   Ceiling: Unl
Heat Index: 11°   Visibility: 10mi
Dew Point:   Wind: 9mph
Humidity: 57%   Direction: 300°WNW
Pressure: 29.87"   Gusts: NA
Location:  40.69°N, 73.86°W
Report Text: KJFK 250851Z 30008KT 10SM SCT250 11/03 A2987 RMK AO2 SLP113 T01110028 51002
Loading
Personal Weather Stations






























Interactive Weather Map
Tropical Storm Tracking
New forecast layout! Learn more

10-Day Weather Forecast

Advertisements
Track Severe Weather on mobile